ADDS METAR Data INFO
IDs: Format: Raw Decoded Include TAF

Data at: 2336 UTC 25 Feb 2018

KPTK 252253Z 24019G25KT 10SM FEW044 FEW230 06/M04 A2991 RMK AO2 PK WND 25028/2218 SLP132 T00561039
KPTK 252153Z 25015G23KT 10SM FEW046 SCT230 06/M04 A2987 RMK AO2 PK WND 25030/2126 SLP123 T00611039
KPTK 252053Z 23016G27KT 10SM FEW044 FEW230 06/M03 A2984 RMK AO2 PK WND 24031/2010 SLP110 T00611033 51011
KPTK 251953Z 23019G29KT 10SM SCT043 07/M03 A2984 RMK AO2 PK WND 24032/1936 SLP109 T00721033
KPTK 251853Z 23018G27KT 10SM FEW043 07/M03 A2982 RMK AO2 PK WND 26032/1839 SLP106 T00721033
KPTK 251753Z 23019G31KT 10SM SCT036 06/M03 A2980 RMK AO2 PK WND 23031/1749 SLP100 T00561033 10078 20033 51026
KPTK 251653Z 24017G28KT 10SM BKN030 04/M03 A2979 RMK AO2 PK WND 22028/1622 SLP096 T00441028
KPTK 251553Z 23017G26KT 10SM BKN031 04/M02 A2977 RMK AO2 PK WND 26034/1517 SLP086 T00391022
KPTK 251522Z 26022G34KT 10SM BKN031 04/M03 A2975 RMK AO2 PK WND 26034/1517 T00391028
KPTK 251453Z 25019G29KT 10SM BKN022 03/M03 A2972 RMK AO2 PK WND 26033/1404 SLP072 T00331028 51057
KPTK 251353Z 24017G28KT 10SM BKN024 03/M01 A2967 RMK AO2 PK WND 26031/1257 SLP055 T00331006
KPTK 251253Z 26016G34KT 10SM BKN027 04/01 A2962 RMK AO2 PK WND 25039/1224 SLP038 T00440006
KPTK 251153Z 24023G38KT 10SM SCT013 BKN027 OVC041 08/03 A2955 RMK AO2 PK WND 23038/1137 PRESRR SLP012 60002 70004 T00780033 10089 20022 53025
KPTK 251131Z 23017G24KT 10SM SCT013 BKN019 OVC041 09/08 A2951 RMK AO2 PRESRR T00890078
KPTK 251104Z 23013G21KT 10SM SCT006 BKN012 OVC016 08/08 A2948 RMK AO2 T00830083
KPTK 251053Z 22014G20KT 10SM BKN004 OVC012 08/08 A2948 RMK AO2 RAB0955E08 CIG 003V008 SLP986 P0000 T00780078
KPTK 251010Z AUTO 18008KT 6SM BR OVC003 06/06 A2946 RMK AO2 RAB0955E08 P0000 T00560056
KPTK 251001Z AUTO 17005KT 2 1/2SM -RA BR OVC003 04/04 A2946 RMK AO2 RAB0955 P0000 T00440044
KPTK 250953Z AUTO 13008KT 3SM BR OVC003 04/04 A2946 RMK AO2 RAE05B22E36 SLP982 P0001 T00390039
KPTK 250933Z AUTO 18006KT 3SM -RA BR OVC003 04/04 A2946 RMK AO2 RAE05B22 P0000 T00390039
KPTK 250910Z AUTO 14009KT 2 1/2SM BR OVC002 03/03 A2946 RMK AO2 RAE05 P0000 T00330033
KPTK 250901Z AUTO 13009KT 1 1/2SM R09R/4500VP6000FT -RA BR OVC002 03/03 A2946 RMK AO2 P0000 T00330033
KPTK 250853Z AUTO 12009KT 3/4SM R09R/2200V4500FT -RA BR VV002 03/03 A2947 RMK AO2 RAB36 PRESFR SLP987 P0001 60001 T00330033 56020
KPTK 250753Z AUTO 12012KT 1/4SM R09R/1600V1800FT FG VV002 03/03 A2953 RMK AO2 PRESFR SLP006 T00280028
KPTK 250750Z AUTO 12013KT 1/4SM R09R/1600V2000FT FG VV002 03/03 A2953 RMK AO2 PRESFR
KPTK 250718Z AUTO 13014G19KT 3/4SM R09R/3000V4000FT BR VV002 02/02 A2957 RMK AO2 T00220022
KPTK 250702Z AUTO 13015G21KT 1 1/4SM R09R/5000VP6000FT BR OVC002 02/02 A2957 RMK AO2 T00220022
KPTK 250653Z AUTO 13012G19KT 2SM BR OVC002 02/02 A2958 RMK AO2 PK WND 12027/0556 SLP024 T00220022
KPTK 250651Z AUTO 12013G22KT 2SM BR OVC002 02/02 A2958 RMK AO2 PK WND 12027/0556
KPTK 250553Z AUTO 11015G25KT 5SM BR OVC004 02/02 A2964 RMK AO2 PK WND 10026/0511 PRESFR SLP043 60002 T00220017 10022 20017 58083
KPTK 250535Z AUTO 11014G21KT 5SM BR OVC004 02/02 A2968 RMK AO2 PK WND 10026/0511 T00170017
KPTK 250453Z 12015KT 6SM BR OVC005 02/02 A2973 RMK AO2 PK WND 12026/0359 RAE39 SLP075 LAST P0001 T00170017 400330011
KPTK 250401Z 12013G26KT 7SM -RA OVC007 02/01 A2980 RMK AO2 PK WND 12026/0359 PRESFR P0001 T00170011
KPTK 250353Z 11017G22KT 6SM -RA BR OVC010 02/01 A2981 RMK AO2 RAB38 PRESFR SLP104 P0001 T00170011
KPTK 250253Z 11013G19KT 10SM OVC013 02/M01 A2989 RMK AO2 SLP129 T00221006 58039
KPTK 250153Z 11012G19KT 10SM BKN011 OVC180 02/00 A2993 RMK AO2 SLP143 T00170000
KPTK 250139Z 11010KT 10SM BKN013 OVC180 02/00 A2994 RMK AO2 T00170000
KPTK 250053Z 10010KT 10SM FEW012 OVC018 02/M01 A2998 RMK AO2 SLP161 T00171006
KPTK 242353Z 09008KT 10SM OVC016 02/M01 A3001 RMK AO2 SLP170 T00221006 10033 20017 58029
KPTK 242253Z 08008KT 10SM OVC016 03/M01 A3004 RMK AO2 SLP181 T00281011
KPTK 242153Z 10009KT 10SM BKN020 OVC090 03/M02 A3006 RMK AO2 SLP188 T00281017
KPTK 242109Z 07009KT 10SM BKN022 OVC100 03/M02 A3007 RMK AO2 T00281022
KPTK 242053Z 09008KT 10SM SCT022 OVC100 03/M02 A3009 RMK AO2 SLP200 T00281022 56026
KPTK 241953Z 08009KT 10SM FEW021 BKN100 03/M02 A3010 RMK AO2 SLP199 T00281022
KPTK 241853Z 06011KT 10SM FEW016 OVC100 02/M02 A3013 RMK AO2 SLP213 T00221022
KPTK 241814Z 09008KT 10SM SCT016 OVC100 02/M02 A3016 RMK AO2 T00221022
KPTK 241753Z 08009KT 10SM BKN016 OVC110 02/M02 A3017 RMK AO2 SLP226 T00171022 10022 20011 58011
KPTK 241717Z 08008KT 10SM OVC016 02/M02 A3020 RMK AO2 T00171017
KPTK 241653Z 08007KT 10SM OVC014 02/M02 A3021 RMK AO2 SLP238 T00171017
KPTK 241644Z 08008KT 10SM OVC014 02/M02 A3021 RMK AO2 T00171017
KPTK 241553Z 08009KT 10SM BKN019 OVC100 02/M01 A3021 RMK AO2 SLP238 T00221011
KPTK 241548Z 08007KT 10SM BKN019 OVC100 02/M02 A3020 RMK AO2
KPTK 241453Z 06008KT 10SM OVC100 02/M02 A3020 RMK AO2 SLP235 T00221017 55001
KPTK 241417Z 05005KT 10SM SCT023 OVC100 02/M01 A3021 RMK AO2 T00221011
KPTK 241353Z 05006KT 10SM BKN023 OVC110 02/M01 A3019 RMK AO2 SLP233 T00171006
KPTK 241253Z 06003KT 10SM BKN023 OVC100 02/M01 A3021 RMK AO2 SLP237 T00171011
KPTK 241230Z 05003KT 10SM BKN023 OVC100 01/M01 A3020 RMK AO2 T00111011
KPTK 241204Z 00000KT 10SM SCT021 OVC100 02/M01 A3021 RMK AO2 T00171011
KPTK 241153Z 02003KT 10SM BKN021 OVC100 02/M01 A3021 RMK AO2 SLP236 70005 T00171011 10028 20017 50004